Coffeyville, Kansas
Current Conditions -  °F | °C
As of 9:52 PM on Wednesday 28 Jan 2015 (Local Time) from KCFV Reporting Station
Clear Clear  
Wind Chill: 59°   Ceiling: Unl
Heat Index: 59°   Visibility: 10mi
Dew Point: 38°   Wind: 6mph
Humidity: 46%   Direction: 210°SSW
Pressure: 29.88"   Gusts: NA
Location:  37.03°N, 95.62°W
Report Text: KCFV 290352Z AUTO 21005KT 10SM CLR 15/03 A2988 RMK AO2 SLP115 T01500033
Loading
Personal Weather Stations






























Interactive Weather Map New forecast layout! Learn more

10-Day Weather Forecast

Advertisements
Track Severe Weather on mobile